EDW189 LSZH-LGIR
Flight info
| Callsign | EDW189 |
|---|---|
| Flight time | N/A |
| Altitude | 35000 |
| Route | DEGES Z2 XEBIX L607 ELMEM N606 GIRIS DCT NIVAS DCT PEVAL DCT NERRA/N0431F370 DCT PETAK DCT PINDO DCT KEA UL607 GIVIS T514 XAVIS |
| Aircraft | A320/M-SDE2E3FGHIJ1RWXY/LB1 |
Departure
| Time | N/A |
|---|---|
| Airport | Zürich Airport (LSZH) |
Arrival
| Time | 2026-05-07 22:24 |
|---|---|
| Airport | Heraklion International Nikos Kazantzakis Airport (LGIR) |
| Time | Latitude | Longitude | Altitude | Speed | Heading |
|---|---|---|---|---|---|
| 2026-05-07 20:10 | 47.43853 | 9.37169 | 21773 ft | 427 kts | 77° |
| 2026-05-07 20:10 | 47.44497 | 9.41460 | 22226 ft | 430 kts | 77° |
| 2026-05-07 20:10 | 47.45135 | 9.45739 | 22653 ft | 433 kts | 77° |
| 2026-05-07 20:11 | 47.45781 | 9.50075 | 23080 ft | 435 kts | 77° |
| 2026-05-07 20:11 | 47.46432 | 9.54450 | 23487 ft | 438 kts | 77° |
| 2026-05-07 20:11 | 47.46976 | 9.58874 | 23835 ft | 441 kts | 84° |
| 2026-05-07 20:11 | 47.47080 | 9.63404 | 24155 ft | 443 kts | 93° |
| 2026-05-07 20:12 | 47.46845 | 9.67959 | 24453 ft | 446 kts | 95° |
| 2026-05-07 20:12 | 47.46596 | 9.72537 | 24752 ft | 448 kts | 95° |
| 2026-05-07 20:12 | 47.46347 | 9.77151 | 25056 ft | 451 kts | 95° |
| 2026-05-07 20:12 | 47.46094 | 9.81777 | 25357 ft | 454 kts | 95° |
| 2026-05-07 20:13 | 47.45834 | 9.86436 | 25652 ft | 456 kts | 95° |
| 2026-05-07 20:13 | 47.45571 | 9.91124 | 25955 ft | 459 kts | 95° |
| 2026-05-07 20:13 | 47.45306 | 9.95822 | 26244 ft | 461 kts | 95° |
| 2026-05-07 20:13 | 47.45035 | 10.00557 | 26536 ft | 464 kts | 95° |
| 2026-05-07 20:14 | 47.44759 | 10.05319 | 26817 ft | 466 kts | 95° |
| 2026-05-07 20:14 | 47.44479 | 10.10099 | 27077 ft | 469 kts | 95° |
| 2026-05-07 20:14 | 47.44196 | 10.14919 | 27335 ft | 471 kts | 95° |
| 2026-05-07 20:14 | 47.43814 | 10.19732 | 27590 ft | 473 kts | 101° |
| 2026-05-07 20:15 | 47.43181 | 10.24518 | 27837 ft | 476 kts | 101° |
| 2026-05-07 20:15 | 47.42534 | 10.29328 | 28063 ft | 478 kts | 101° |
| 2026-05-07 20:15 | 47.41880 | 10.34148 | 28319 ft | 480 kts | 102° |
| 2026-05-07 20:15 | 47.40952 | 10.38878 | 28542 ft | 481 kts | 112° |
| 2026-05-07 20:16 | 47.39665 | 10.42925 | 28738 ft | 482 kts | 121° |
| 2026-05-07 20:16 | 47.38060 | 10.46521 | 28906 ft | 482 kts | 130° |
| 2026-05-07 20:16 | 47.35816 | 10.50171 | 29098 ft | 480 kts | 140° |
| 2026-05-07 20:16 | 47.33243 | 10.53195 | 29294 ft | 478 kts | 150° |
| 2026-05-07 20:17 | 47.30374 | 10.55643 | 29524 ft | 476 kts | 155° |
| 2026-05-07 20:17 | 47.27459 | 10.57950 | 29815 ft | 475 kts | 155° |
| 2026-05-07 20:17 | 47.25497 | 10.59501 | 30009 ft | 475 kts | 155° |
| 2026-05-07 20:17 | 47.21638 | 10.62540 | 30357 ft | 475 kts | 156° |
| 2026-05-07 20:18 | 47.18728 | 10.64832 | 30579 ft | 474 kts | 156° |
| 2026-05-07 20:18 | 47.15750 | 10.66882 | 30848 ft | 470 kts | 163° |
| 2026-05-07 20:18 | 47.12693 | 10.68566 | 31121 ft | 469 kts | 164° |
| 2026-05-07 20:18 | 47.09643 | 10.70239 | 31386 ft | 468 kts | 164° |
| 2026-05-07 20:19 | 47.06592 | 10.71910 | 31630 ft | 467 kts | 165° |
| 2026-05-07 20:19 | 47.04536 | 10.73034 | 31807 ft | 467 kts | 165° |
| 2026-05-07 20:19 | 47.01502 | 10.74696 | 31947 ft | 466 kts | 165° |
| 2026-05-07 20:19 | 46.98462 | 10.76384 | 32213 ft | 467 kts | 165° |
| 2026-05-07 20:20 | 46.95436 | 10.78092 | 32487 ft | 467 kts | 164° |
| 2026-05-07 20:20 | 46.92407 | 10.79817 | 32745 ft | 466 kts | 164° |
| 2026-05-07 20:20 | 46.89386 | 10.81540 | 32957 ft | 466 kts | 165° |
| 2026-05-07 20:20 | 46.86363 | 10.83257 | 33194 ft | 466 kts | 165° |
| 2026-05-07 20:21 | 46.83344 | 10.84962 | 33465 ft | 465 kts | 165° |
| 2026-05-07 20:21 | 46.80347 | 10.86752 | 33754 ft | 468 kts | 160° |
| 2026-05-07 20:21 | 46.77511 | 10.89132 | 34004 ft | 475 kts | 150° |
| 2026-05-07 20:21 | 46.74937 | 10.92197 | 34226 ft | 481 kts | 140° |
| 2026-05-07 20:22 | 46.72665 | 10.95816 | 34453 ft | 484 kts | 135° |
| 2026-05-07 20:22 | 46.70446 | 10.99496 | 34678 ft | 483 kts | 136° |
| 2026-05-07 20:22 | 46.68217 | 11.03161 | 34824 ft | 482 kts | 136° |
| 2026-05-07 20:22 | 46.66029 | 11.06733 | 34966 ft | 479 kts | 136° |
| 2026-05-07 20:23 | 46.63801 | 11.10352 | 35030 ft | 481 kts | 137° |
| 2026-05-07 20:23 | 46.59328 | 11.17593 | 35074 ft | 481 kts | 136° |
| 2026-05-07 20:24 | 46.54861 | 11.24840 | 35064 ft | 481 kts | 136° |
| 2026-05-07 20:24 | 46.50393 | 11.32093 | 35002 ft | 481 kts | 136° |
| 2026-05-07 20:25 | 46.45921 | 11.39328 | 35002 ft | 483 kts | 136° |
| 2026-05-07 20:25 | 46.41427 | 11.46582 | 35012 ft | 484 kts | 137° |
| 2026-05-07 20:26 | 46.36925 | 11.53824 | 35052 ft | 483 kts | 137° |
| 2026-05-07 20:26 | 46.32421 | 11.61042 | 35064 ft | 482 kts | 137° |
| 2026-05-07 20:27 | 46.27926 | 11.68233 | 35062 ft | 482 kts | 137° |
| 2026-05-07 20:27 | 46.23427 | 11.75409 | 35060 ft | 481 kts | 137° |
| 2026-05-07 20:28 | 46.18932 | 11.82558 | 35052 ft | 480 kts | 137° |
| 2026-05-07 20:28 | 46.14435 | 11.89704 | 35058 ft | 481 kts | 137° |
| 2026-05-07 20:29 | 46.09924 | 11.96836 | 35059 ft | 481 kts | 137° |
| 2026-05-07 20:29 | 46.05413 | 12.03949 | 35036 ft | 481 kts | 137° |
| 2026-05-07 20:30 | 46.00896 | 12.11061 | 35037 ft | 482 kts | 137° |
| 2026-05-07 20:30 | 45.96365 | 12.18169 | 35025 ft | 482 kts | 137° |
| 2026-05-07 20:31 | 45.91869 | 12.25214 | 35020 ft | 482 kts | 137° |
| 2026-05-07 20:31 | 45.87343 | 12.32404 | 35000 ft | 483 kts | 136° |
| 2026-05-07 20:32 | 45.82992 | 12.39668 | 34996 ft | 484 kts | 135° |
| 2026-05-07 20:32 | 45.78641 | 12.47026 | 35006 ft | 484 kts | 135° |
| 2026-05-07 20:33 | 45.74255 | 12.54342 | 35011 ft | 484 kts | 136° |
| 2026-05-07 20:33 | 45.69842 | 12.61618 | 35029 ft | 484 kts | 136° |
| 2026-05-07 20:34 | 45.65583 | 12.68622 | 35003 ft | 484 kts | 136° |
| 2026-05-07 20:34 | 45.61183 | 12.75848 | 35010 ft | 484 kts | 136° |
| 2026-05-07 20:35 | 45.56786 | 12.83055 | 35010 ft | 484 kts | 136° |
| 2026-05-07 20:35 | 45.52355 | 12.90303 | 35012 ft | 484 kts | 136° |
| 2026-05-07 20:36 | 45.48143 | 12.97180 | 35004 ft | 484 kts | 136° |
| 2026-05-07 20:36 | 45.44045 | 13.03856 | 35009 ft | 485 kts | 136° |
| 2026-05-07 20:37 | 45.39596 | 13.11078 | 34992 ft | 485 kts | 137° |
| 2026-05-07 20:37 | 45.35148 | 13.18269 | 35006 ft | 485 kts | 137° |
| 2026-05-07 20:38 | 45.30690 | 13.25474 | 35011 ft | 486 kts | 136° |
| 2026-05-07 20:38 | 45.26508 | 13.33056 | 35018 ft | 489 kts | 131° |
| 2026-05-07 20:39 | 45.22585 | 13.40961 | 35022 ft | 490 kts | 130° |
| 2026-05-07 20:39 | 45.18629 | 13.48831 | 35028 ft | 489 kts | 131° |
| 2026-05-07 20:40 | 45.14574 | 13.56572 | 34994 ft | 489 kts | 132° |
| 2026-05-07 20:40 | 45.10486 | 13.64252 | 35012 ft | 488 kts | 133° |
| 2026-05-07 20:41 | 45.06410 | 13.71931 | 35025 ft | 488 kts | 132° |
| 2026-05-07 20:41 | 45.02355 | 13.79630 | 35042 ft | 488 kts | 132° |
| 2026-05-07 20:42 | 44.98298 | 13.87312 | 35055 ft | 488 kts | 132° |
| 2026-05-07 20:42 | 44.94225 | 13.94965 | 35047 ft | 487 kts | 133° |
| 2026-05-07 20:43 | 44.90148 | 14.02596 | 35020 ft | 487 kts | 133° |
| 2026-05-07 20:43 | 44.86073 | 14.10219 | 35030 ft | 487 kts | 133° |
| 2026-05-07 20:44 | 44.82000 | 14.17835 | 35030 ft | 487 kts | 133° |
| 2026-05-07 20:44 | 44.77916 | 14.25439 | 35027 ft | 487 kts | 133° |
| 2026-05-07 20:45 | 44.73826 | 14.33028 | 35036 ft | 487 kts | 133° |
| 2026-05-07 20:45 | 44.69730 | 14.40608 | 35043 ft | 487 kts | 133° |
| 2026-05-07 20:46 | 44.65630 | 14.48175 | 35041 ft | 487 kts | 133° |
| 2026-05-07 20:46 | 44.61526 | 14.55736 | 35033 ft | 487 kts | 133° |
| 2026-05-07 20:47 | 44.57407 | 14.63290 | 35041 ft | 487 kts | 133° |
| 2026-05-07 20:47 | 44.53283 | 14.70836 | 35044 ft | 487 kts | 133° |
| 2026-05-07 20:48 | 44.49160 | 14.78375 | 35048 ft | 487 kts | 133° |
| 2026-05-07 20:48 | 44.45038 | 14.85897 | 35051 ft | 487 kts | 133° |
| 2026-05-07 20:49 | 44.40905 | 14.93417 | 35051 ft | 487 kts | 133° |
| 2026-05-07 20:49 | 44.36763 | 15.00918 | 35033 ft | 487 kts | 134° |
| 2026-05-07 20:50 | 44.32619 | 15.08421 | 35044 ft | 488 kts | 134° |
| 2026-05-07 20:50 | 44.28464 | 15.15907 | 35055 ft | 488 kts | 134° |
| 2026-05-07 20:51 | 44.24300 | 15.23394 | 35063 ft | 488 kts | 134° |
| 2026-05-07 20:51 | 44.20141 | 15.30868 | 35069 ft | 488 kts | 134° |
| 2026-05-07 20:52 | 44.15999 | 15.38280 | 35072 ft | 488 kts | 134° |
| 2026-05-07 20:52 | 44.11796 | 15.45783 | 35044 ft | 488 kts | 134° |
| 2026-05-07 20:53 | 44.07613 | 15.53230 | 35049 ft | 489 kts | 135° |
| 2026-05-07 20:53 | 44.03446 | 15.60628 | 35060 ft | 489 kts | 135° |
| 2026-05-07 20:54 | 43.99245 | 15.68060 | 35073 ft | 489 kts | 135° |
| 2026-05-07 20:54 | 43.95041 | 15.75479 | 35055 ft | 489 kts | 135° |
| 2026-05-07 20:55 | 43.90833 | 15.82895 | 35060 ft | 489 kts | 135° |
| 2026-05-07 20:55 | 43.86625 | 15.90303 | 35030 ft | 489 kts | 135° |
| 2026-05-07 20:56 | 43.82408 | 15.97693 | 35047 ft | 489 kts | 135° |
| 2026-05-07 20:56 | 43.78182 | 16.05073 | 35048 ft | 489 kts | 135° |
| 2026-05-07 20:57 | 43.73967 | 16.12443 | 35064 ft | 488 kts | 135° |
| 2026-05-07 20:57 | 43.69741 | 16.19800 | 35070 ft | 488 kts | 136° |
| 2026-05-07 20:58 | 43.65517 | 16.27131 | 35078 ft | 488 kts | 136° |
| 2026-05-07 20:58 | 43.61284 | 16.34455 | 35074 ft | 488 kts | 136° |
| 2026-05-07 20:59 | 43.57052 | 16.41766 | 35067 ft | 487 kts | 135° |
| 2026-05-07 20:59 | 43.52852 | 16.49012 | 35075 ft | 487 kts | 135° |
| 2026-05-07 21:00 | 43.48619 | 16.56278 | 35090 ft | 486 kts | 136° |
| 2026-05-07 21:00 | 43.44378 | 16.63544 | 35090 ft | 486 kts | 136° |
| 2026-05-07 21:01 | 43.40147 | 16.70785 | 35081 ft | 486 kts | 135° |
| 2026-05-07 21:01 | 43.35906 | 16.78019 | 35062 ft | 485 kts | 135° |
| 2026-05-07 21:02 | 43.31667 | 16.85227 | 35074 ft | 485 kts | 135° |
| 2026-05-07 21:02 | 43.27423 | 16.92434 | 35084 ft | 485 kts | 135° |
| 2026-05-07 21:03 | 43.23177 | 16.99621 | 35082 ft | 485 kts | 135° |
| 2026-05-07 21:03 | 43.18925 | 17.06799 | 35059 ft | 485 kts | 135° |
| 2026-05-07 21:04 | 43.14664 | 17.13972 | 35060 ft | 485 kts | 135° |
| 2026-05-07 21:04 | 43.10398 | 17.21147 | 35054 ft | 486 kts | 135° |
| 2026-05-07 21:05 | 43.06137 | 17.28301 | 35062 ft | 486 kts | 135° |
| 2026-05-07 21:05 | 43.02583 | 17.34240 | 35066 ft | 486 kts | 135° |
| 2026-05-07 21:06 | 42.98299 | 17.41389 | 35054 ft | 486 kts | 135° |
| 2026-05-07 21:06 | 42.94053 | 17.48462 | 35060 ft | 486 kts | 135° |
| 2026-05-07 21:07 | 42.89842 | 17.55450 | 35067 ft | 486 kts | 135° |
| 2026-05-07 21:07 | 42.85499 | 17.62495 | 35072 ft | 485 kts | 136° |
| 2026-05-07 21:08 | 42.81111 | 17.69509 | 35054 ft | 486 kts | 136° |
| 2026-05-07 21:08 | 42.76725 | 17.76511 | 35049 ft | 486 kts | 135° |
| 2026-05-07 21:09 | 42.72366 | 17.83486 | 35049 ft | 488 kts | 135° |
| 2026-05-07 21:09 | 42.67944 | 17.90564 | 35062 ft | 488 kts | 135° |
| 2026-05-07 21:10 | 42.63577 | 17.97538 | 35072 ft | 488 kts | 135° |
| 2026-05-07 21:10 | 42.59165 | 18.04546 | 35073 ft | 488 kts | 136° |
| 2026-05-07 21:11 | 42.54751 | 18.11533 | 35057 ft | 488 kts | 135° |
| 2026-05-07 21:11 | 42.48107 | 18.22031 | 35068 ft | 489 kts | 136° |
| 2026-05-07 21:12 | 42.43672 | 18.29025 | 35074 ft | 490 kts | 136° |
| 2026-05-07 21:12 | 42.39230 | 18.36008 | 35077 ft | 490 kts | 136° |
| 2026-05-07 21:13 | 42.34780 | 18.42996 | 35074 ft | 490 kts | 136° |
| 2026-05-07 21:13 | 42.30327 | 18.49971 | 35050 ft | 490 kts | 137° |
| 2026-05-07 21:14 | 42.26231 | 18.56372 | 35065 ft | 491 kts | 137° |
| 2026-05-07 21:14 | 42.21767 | 18.63333 | 35075 ft | 491 kts | 137° |
| 2026-05-07 21:15 | 42.17293 | 18.70294 | 35234 ft | 491 kts | 137° |
| 2026-05-07 21:15 | 42.15058 | 18.73763 | 35439 ft | 490 kts | 137° |
| 2026-05-07 21:15 | 42.12820 | 18.77228 | 35608 ft | 491 kts | 137° |
| 2026-05-07 21:16 | 42.10574 | 18.80694 | 35738 ft | 492 kts | 138° |
| 2026-05-07 21:16 | 42.08317 | 18.84171 | 35860 ft | 493 kts | 138° |
| 2026-05-07 21:16 | 42.06058 | 18.87652 | 35987 ft | 494 kts | 138° |
| 2026-05-07 21:16 | 42.03797 | 18.91142 | 36085 ft | 496 kts | 139° |
| 2026-05-07 21:17 | 42.01529 | 18.94643 | 36212 ft | 497 kts | 139° |
| 2026-05-07 21:17 | 41.99257 | 18.98149 | 36336 ft | 498 kts | 139° |
| 2026-05-07 21:17 | 41.96979 | 19.01659 | 36466 ft | 499 kts | 139° |
| 2026-05-07 21:17 | 41.94692 | 19.05174 | 36595 ft | 499 kts | 140° |
| 2026-05-07 21:18 | 41.92405 | 19.08680 | 36726 ft | 500 kts | 140° |
| 2026-05-07 21:18 | 41.90109 | 19.12189 | 36846 ft | 501 kts | 140° |
| 2026-05-07 21:18 | 41.87811 | 19.15700 | 37005 ft | 500 kts | 140° |
| 2026-05-07 21:18 | 41.85509 | 19.19215 | 37076 ft | 503 kts | 140° |
| 2026-05-07 21:19 | 41.80862 | 19.26289 | 37072 ft | 506 kts | 140° |
| 2026-05-07 21:19 | 41.76211 | 19.33267 | 37061 ft | 504 kts | 143° |
| 2026-05-07 21:20 | 41.71310 | 19.39834 | 37087 ft | 501 kts | 146° |
| 2026-05-07 21:20 | 41.66302 | 19.46110 | 37061 ft | 500 kts | 147° |
| 2026-05-07 21:21 | 41.61232 | 19.52523 | 37062 ft | 503 kts | 146° |
| 2026-05-07 21:21 | 41.56210 | 19.59027 | 37065 ft | 504 kts | 145° |
| 2026-05-07 21:22 | 41.51189 | 19.65572 | 37049 ft | 505 kts | 145° |
| 2026-05-07 21:22 | 41.46149 | 19.72080 | 37068 ft | 505 kts | 146° |
| 2026-05-07 21:23 | 41.41116 | 19.78531 | 37067 ft | 505 kts | 146° |
| 2026-05-07 21:23 | 41.36009 | 19.85068 | 37054 ft | 506 kts | 146° |
| 2026-05-07 21:24 | 41.30928 | 19.91563 | 37071 ft | 508 kts | 146° |
| 2026-05-07 21:24 | 41.25876 | 19.98030 | 37079 ft | 508 kts | 146° |
| 2026-05-07 21:25 | 41.20778 | 20.04535 | 37063 ft | 508 kts | 146° |
| 2026-05-07 21:25 | 41.15656 | 20.11029 | 37089 ft | 509 kts | 146° |
| 2026-05-07 21:26 | 41.10673 | 20.17337 | 37090 ft | 510 kts | 145° |
| 2026-05-07 21:26 | 41.05542 | 20.23839 | 37098 ft | 510 kts | 145° |
| 2026-05-07 21:27 | 41.00399 | 20.30342 | 37106 ft | 511 kts | 146° |
| 2026-05-07 21:27 | 40.95241 | 20.36835 | 37115 ft | 512 kts | 146° |
| 2026-05-07 21:28 | 40.90087 | 20.43318 | 37119 ft | 511 kts | 146° |
| 2026-05-07 21:28 | 40.84926 | 20.49793 | 37137 ft | 512 kts | 145° |
| 2026-05-07 21:29 | 40.79830 | 20.56180 | 37144 ft | 513 kts | 145° |
| 2026-05-07 21:29 | 40.74694 | 20.62597 | 37157 ft | 514 kts | 145° |
| 2026-05-07 21:30 | 40.69510 | 20.69052 | 37139 ft | 512 kts | 145° |
| 2026-05-07 21:30 | 40.64335 | 20.75476 | 37153 ft | 513 kts | 145° |
| 2026-05-07 21:31 | 40.59191 | 20.81840 | 37161 ft | 513 kts | 145° |
| 2026-05-07 21:31 | 40.54032 | 20.88235 | 37156 ft | 513 kts | 145° |
| 2026-05-07 21:32 | 40.48855 | 20.94634 | 37159 ft | 514 kts | 145° |
| 2026-05-07 21:32 | 40.43643 | 21.01002 | 37151 ft | 513 kts | 145° |
| 2026-05-07 21:33 | 40.38408 | 21.07303 | 37175 ft | 513 kts | 146° |
| 2026-05-07 21:33 | 40.33151 | 21.13611 | 37183 ft | 513 kts | 146° |
| 2026-05-07 21:34 | 40.27895 | 21.19930 | 37164 ft | 514 kts | 145° |
| 2026-05-07 21:34 | 40.22630 | 21.26261 | 37162 ft | 514 kts | 145° |
| 2026-05-07 21:35 | 40.17357 | 21.32591 | 37141 ft | 515 kts | 145° |
| 2026-05-07 21:35 | 40.12074 | 21.38907 | 37159 ft | 515 kts | 145° |
| 2026-05-07 21:36 | 40.06788 | 21.45216 | 37160 ft | 515 kts | 145° |
| 2026-05-07 21:36 | 40.01494 | 21.51511 | 37167 ft | 515 kts | 145° |
| 2026-05-07 21:37 | 39.96203 | 21.57793 | 37159 ft | 515 kts | 145° |
| 2026-05-07 21:37 | 39.90904 | 21.64071 | 37143 ft | 515 kts | 145° |
| 2026-05-07 21:38 | 39.85620 | 21.70318 | 37149 ft | 515 kts | 145° |
| 2026-05-07 21:38 | 39.80322 | 21.76572 | 37150 ft | 514 kts | 145° |
| 2026-05-07 21:39 | 39.75018 | 21.82824 | 37126 ft | 515 kts | 145° |
| 2026-05-07 21:39 | 39.69700 | 21.89064 | 37125 ft | 516 kts | 145° |
| 2026-05-07 21:40 | 39.64380 | 21.95292 | 37114 ft | 516 kts | 145° |
| 2026-05-07 21:40 | 39.59042 | 22.01534 | 37108 ft | 516 kts | 145° |
| 2026-05-07 21:41 | 39.53710 | 22.07757 | 37115 ft | 516 kts | 145° |
| 2026-05-07 21:41 | 39.48370 | 22.13978 | 37107 ft | 517 kts | 144° |
| 2026-05-07 21:42 | 39.43016 | 22.20202 | 37106 ft | 518 kts | 144° |
| 2026-05-07 21:42 | 39.37653 | 22.26428 | 37109 ft | 518 kts | 144° |
| 2026-05-07 21:43 | 39.32316 | 22.32597 | 37102 ft | 518 kts | 144° |
| 2026-05-07 21:43 | 39.26934 | 22.38805 | 37117 ft | 519 kts | 144° |
| 2026-05-07 21:44 | 39.21554 | 22.45009 | 37119 ft | 519 kts | 144° |
| 2026-05-07 21:44 | 39.16167 | 22.51208 | 37105 ft | 520 kts | 144° |
| 2026-05-07 21:45 | 39.10764 | 22.57411 | 37104 ft | 521 kts | 144° |
| 2026-05-07 21:45 | 39.05351 | 22.63599 | 37095 ft | 521 kts | 144° |
| 2026-05-07 21:46 | 38.99931 | 22.69792 | 37105 ft | 521 kts | 144° |
| 2026-05-07 21:46 | 38.94508 | 22.75974 | 37113 ft | 521 kts | 144° |
| 2026-05-07 21:47 | 38.89081 | 22.82143 | 37113 ft | 522 kts | 144° |
| 2026-05-07 21:47 | 38.83628 | 22.88321 | 37115 ft | 523 kts | 144° |
| 2026-05-07 21:48 | 38.78168 | 22.94505 | 37098 ft | 524 kts | 144° |
| 2026-05-07 21:48 | 38.72703 | 23.00684 | 37127 ft | 524 kts | 144° |
| 2026-05-07 21:49 | 38.67237 | 23.06864 | 37124 ft | 524 kts | 144° |
| 2026-05-07 21:49 | 38.61760 | 23.13032 | 37121 ft | 525 kts | 143° |
| 2026-05-07 21:50 | 38.56272 | 23.19187 | 37122 ft | 525 kts | 143° |
| 2026-05-07 21:50 | 38.50781 | 23.25334 | 37114 ft | 525 kts | 143° |
| 2026-05-07 21:51 | 38.45289 | 23.31486 | 37125 ft | 525 kts | 144° |
| 2026-05-07 21:51 | 38.39797 | 23.37616 | 37147 ft | 525 kts | 144° |
| 2026-05-07 21:52 | 38.34292 | 23.43736 | 37156 ft | 525 kts | 143° |
| 2026-05-07 21:52 | 38.29679 | 23.48853 | 37149 ft | 525 kts | 143° |
| 2026-05-07 21:53 | 38.24199 | 23.54923 | 37145 ft | 526 kts | 143° |
| 2026-05-07 21:53 | 38.18683 | 23.61037 | 37140 ft | 526 kts | 143° |
| 2026-05-07 21:54 | 38.13162 | 23.67142 | 37134 ft | 526 kts | 143° |
| 2026-05-07 21:54 | 38.07642 | 23.73235 | 37142 ft | 526 kts | 143° |
| 2026-05-07 21:55 | 38.02105 | 23.79334 | 37149 ft | 527 kts | 143° |
| 2026-05-07 21:55 | 37.96561 | 23.85423 | 37139 ft | 527 kts | 143° |
| 2026-05-07 21:56 | 37.91005 | 23.91494 | 37154 ft | 527 kts | 143° |
| 2026-05-07 21:56 | 37.85452 | 23.97565 | 37164 ft | 528 kts | 143° |
| 2026-05-07 21:57 | 37.80214 | 24.03280 | 37169 ft | 528 kts | 143° |
| 2026-05-07 21:57 | 37.74652 | 24.09335 | 37169 ft | 528 kts | 142° |
| 2026-05-07 21:58 | 37.69077 | 24.15387 | 37155 ft | 529 kts | 142° |
| 2026-05-07 21:58 | 37.63828 | 24.21085 | 37138 ft | 529 kts | 142° |
| 2026-05-07 21:59 | 37.58290 | 24.27077 | 37144 ft | 530 kts | 142° |
| 2026-05-07 21:59 | 37.52374 | 24.32515 | 37148 ft | 524 kts | 153° |
| 2026-05-07 22:00 | 37.46183 | 24.37372 | 37151 ft | 525 kts | 153° |
| 2026-05-07 22:00 | 37.39981 | 24.42228 | 37139 ft | 525 kts | 152° |
| 2026-05-07 22:01 | 37.33793 | 24.47072 | 37163 ft | 524 kts | 152° |
| 2026-05-07 22:01 | 37.27605 | 24.51913 | 37173 ft | 524 kts | 152° |
| 2026-05-07 22:02 | 37.21419 | 24.56751 | 37178 ft | 523 kts | 152° |
| 2026-05-07 22:02 | 37.15239 | 24.61576 | 37168 ft | 523 kts | 152° |
| 2026-05-07 22:03 | 37.09054 | 24.66372 | 37169 ft | 522 kts | 152° |
| 2026-05-07 22:03 | 37.02874 | 24.71153 | 37169 ft | 522 kts | 152° |
| 2026-05-07 22:04 | 36.96702 | 24.75937 | 37177 ft | 522 kts | 152° |
| 2026-05-07 22:04 | 36.90532 | 24.80708 | 36799 ft | 521 kts | 152° |
| 2026-05-07 22:05 | 36.87442 | 24.83099 | 35888 ft | 524 kts | 152° |
| 2026-05-07 22:05 | 36.84338 | 24.85501 | 35067 ft | 525 kts | 152° |
| 2026-05-07 22:05 | 36.81223 | 24.87907 | 34164 ft | 528 kts | 152° |
| 2026-05-07 22:05 | 36.78084 | 24.90327 | 33109 ft | 532 kts | 152° |
| 2026-05-07 22:06 | 36.74927 | 24.92756 | 32058 ft | 535 kts | 152° |
| 2026-05-07 22:06 | 36.71722 | 24.95124 | 31017 ft | 535 kts | 157° |
| 2026-05-07 22:06 | 36.68329 | 24.96979 | 29777 ft | 533 kts | 166° |
| 2026-05-07 22:06 | 36.64793 | 24.98247 | 28970 ft | 522 kts | 170° |
| 2026-05-07 22:07 | 36.61330 | 24.99425 | 28359 ft | 513 kts | 169° |
| 2026-05-07 22:07 | 36.57910 | 25.00605 | 27628 ft | 507 kts | 169° |
| 2026-05-07 22:07 | 36.54529 | 25.01782 | 26894 ft | 501 kts | 168° |
| 2026-05-07 22:07 | 36.51193 | 25.02947 | 26197 ft | 495 kts | 168° |
| 2026-05-07 22:08 | 36.47898 | 25.04098 | 25497 ft | 490 kts | 168° |
| 2026-05-07 22:08 | 36.44629 | 25.05235 | 24800 ft | 485 kts | 167° |
| 2026-05-07 22:08 | 36.41396 | 25.06350 | 24114 ft | 480 kts | 167° |
| 2026-05-07 22:08 | 36.38203 | 25.07444 | 23503 ft | 472 kts | 167° |
| 2026-05-07 22:09 | 36.35045 | 25.08523 | 22800 ft | 467 kts | 167° |
| 2026-05-07 22:09 | 36.31938 | 25.09586 | 22091 ft | 462 kts | 167° |
| 2026-05-07 22:09 | 36.28865 | 25.10639 | 21525 ft | 455 kts | 167° |
| 2026-05-07 22:09 | 36.25837 | 25.11673 | 20928 ft | 449 kts | 167° |
| 2026-05-07 22:10 | 36.22838 | 25.12699 | 20384 ft | 443 kts | 167° |
| 2026-05-07 22:10 | 36.19884 | 25.13710 | 19843 ft | 438 kts | 167° |
| 2026-05-07 22:10 | 36.16963 | 25.14710 | 19310 ft | 433 kts | 167° |
| 2026-05-07 22:10 | 36.14074 | 25.15694 | 18779 ft | 429 kts | 167° |
| 2026-05-07 22:11 | 36.11204 | 25.16669 | 18189 ft | 426 kts | 167° |
| 2026-05-07 22:11 | 36.08359 | 25.17638 | 17620 ft | 422 kts | 167° |
| 2026-05-07 22:11 | 36.05540 | 25.18603 | 17055 ft | 418 kts | 167° |
| 2026-05-07 22:11 | 36.02745 | 25.19559 | 16477 ft | 415 kts | 167° |
| 2026-05-07 22:12 | 35.99968 | 25.20507 | 15891 ft | 413 kts | 167° |
| 2026-05-07 22:12 | 35.97207 | 25.21446 | 15344 ft | 410 kts | 167° |
| 2026-05-07 22:12 | 35.94473 | 25.22375 | 14761 ft | 408 kts | 168° |
| 2026-05-07 22:12 | 35.91765 | 25.23294 | 14356 ft | 400 kts | 168° |
| 2026-05-07 22:13 | 35.89089 | 25.24204 | 13784 ft | 398 kts | 168° |
| 2026-05-07 22:13 | 35.86448 | 25.25102 | 12869 ft | 389 kts | 167° |
| 2026-05-07 22:13 | 35.83892 | 25.25971 | 12279 ft | 375 kts | 167° |
| 2026-05-07 22:13 | 35.81384 | 25.26823 | 11697 ft | 373 kts | 167° |
| 2026-05-07 22:14 | 35.78880 | 25.27669 | 11096 ft | 373 kts | 167° |
| 2026-05-07 22:14 | 35.76396 | 25.28505 | 10733 ft | 365 kts | 167° |
| 2026-05-07 22:14 | 35.73996 | 25.29315 | 10612 ft | 350 kts | 167° |
| 2026-05-07 22:14 | 35.71696 | 25.30091 | 10491 ft | 336 kts | 167° |
| 2026-05-07 22:15 | 35.69482 | 25.30840 | 10376 ft | 324 kts | 167° |
| 2026-05-07 22:15 | 35.67347 | 25.31563 | 10239 ft | 313 kts | 167° |
| 2026-05-07 22:15 | 35.65270 | 25.32263 | 10043 ft | 306 kts | 167° |
| 2026-05-07 22:15 | 35.63193 | 25.32959 | 9571 ft | 310 kts | 167° |
| 2026-05-07 22:16 | 35.61131 | 25.33649 | 9271 ft | 305 kts | 167° |
| 2026-05-07 22:16 | 35.59088 | 25.34333 | 8888 ft | 303 kts | 166° |
| 2026-05-07 22:16 | 35.57065 | 25.35013 | 8516 ft | 300 kts | 166° |
| 2026-05-07 22:16 | 35.55062 | 25.35687 | 8150 ft | 297 kts | 166° |
| 2026-05-07 22:17 | 35.53076 | 25.36354 | 7732 ft | 292 kts | 165° |
| 2026-05-07 22:17 | 35.51132 | 25.37008 | 7097 ft | 288 kts | 165° |
| 2026-05-07 22:17 | 35.49207 | 25.37655 | 6474 ft | 284 kts | 165° |
| 2026-05-07 22:17 | 35.47320 | 25.38288 | 5866 ft | 278 kts | 164° |
| 2026-05-07 22:18 | 35.45471 | 25.38913 | 5233 ft | 272 kts | 161° |
| 2026-05-07 22:18 | 35.42367 | 25.40868 | 4851 ft | 230 kts | 150° |
| 2026-05-07 22:18 | 35.41021 | 25.41789 | 4742 ft | 213 kts | 150° |
| 2026-05-07 22:19 | 35.39784 | 25.42635 | 4685 ft | 197 kts | 149° |
| 2026-05-07 22:19 | 35.38606 | 25.43444 | 4574 ft | 192 kts | 149° |
| 2026-05-07 22:19 | 35.37387 | 25.44028 | 4466 ft | 192 kts | 174° |
| 2026-05-07 22:19 | 35.36084 | 25.43648 | 4357 ft | 196 kts | 211° |
| 2026-05-07 22:20 | 35.35234 | 25.42394 | 4080 ft | 196 kts | 244° |
| 2026-05-07 22:20 | 35.34653 | 25.40857 | 3803 ft | 196 kts | 244° |
| 2026-05-07 22:20 | 35.34077 | 25.39342 | 3535 ft | 196 kts | 244° |
| 2026-05-07 22:20 | 35.33500 | 25.37831 | 3282 ft | 195 kts | 244° |
| 2026-05-07 22:21 | 35.32959 | 25.36308 | 3016 ft | 195 kts | 253° |
| 2026-05-07 22:21 | 35.32813 | 25.34662 | 2767 ft | 195 kts | 274° |
| 2026-05-07 22:21 | 35.32936 | 25.33010 | 2526 ft | 195 kts | 274° |
| 2026-05-07 22:21 | 35.33051 | 25.31368 | 2287 ft | 192 kts | 274° |
| 2026-05-07 22:22 | 35.33157 | 25.29815 | 2057 ft | 178 kts | 274° |
| 2026-05-07 22:22 | 35.33260 | 25.28345 | 1805 ft | 165 kts | 272° |
| 2026-05-07 22:22 | 35.33356 | 25.26984 | 1572 ft | 155 kts | 273° |
| 2026-05-07 22:22 | 35.33450 | 25.25686 | 1361 ft | 151 kts | 273° |
| 2026-05-07 22:23 | 35.33540 | 25.24411 | 1061 ft | 149 kts | 272° |
| 2026-05-07 22:23 | 35.33627 | 25.23168 | 846 ft | 148 kts | 271° |
| 2026-05-07 22:23 | 35.33701 | 25.21915 | 585 ft | 147 kts | 270° |
| 2026-05-07 22:23 | 35.33782 | 25.20664 | 389 ft | 148 kts | 272° |
| 2026-05-07 22:24 | 35.33877 | 25.19420 | 172 ft | 146 kts | 271° |
| 2026-05-07 22:24 | 35.33953 | 25.18227 | 93 ft | 125 kts | 275° |
| 2026-05-07 22:24 | 35.34017 | 25.17373 | 90 ft | 80 kts | 275° |
| 2026-05-07 22:24 | 35.34043 | 25.16988 | 93 ft | 26 kts | 275° |
| 2026-05-07 22:25 | 35.34031 | 25.16855 | 93 ft | 10 kts | 193° |
| 2026-05-07 22:25 | 35.33995 | 25.16900 | 90 ft | 7 kts | 128° |
| 2026-05-07 22:25 | 35.33967 | 25.16943 | 90 ft | 6 kts | 128° |
| 2026-05-07 22:25 | 35.33949 | 25.16990 | 91 ft | 6 kts | 101° |
| 2026-05-07 22:26 | 35.33944 | 25.17034 | 90 ft | 5 kts | 97° |
| 2026-05-07 22:26 | 35.33940 | 25.17069 | 92 ft | 4 kts | 94° |
| 2026-05-07 22:26 | 35.33939 | 25.17111 | 90 ft | 9 kts | 93° |
| 2026-05-07 22:26 | 35.33933 | 25.17185 | 90 ft | 8 kts | 96° |
| 2026-05-07 22:27 | 35.33929 | 25.17243 | 91 ft | 6 kts | 94° |
| 2026-05-07 22:27 | 35.33926 | 25.17290 | 93 ft | 5 kts | 94° |
| 2026-05-07 22:27 | 35.33923 | 25.17336 | 91 ft | 8 kts | 94° |
| 2026-05-07 22:27 | 35.33919 | 25.17411 | 91 ft | 11 kts | 94° |
| 2026-05-07 22:28 | 35.33912 | 25.17519 | 93 ft | 14 kts | 95° |
| 2026-05-07 22:28 | 35.33883 | 25.17621 | 93 ft | 11 kts | 155° |
| 2026-05-07 22:28 | 35.33811 | 25.17617 | 91 ft | 8 kts | 184° |
| 2026-05-07 22:28 | 35.33794 | 25.17589 | 92 ft | 4 kts | 287° |
| 2026-05-07 22:29 | 35.33799 | 25.17560 | 93 ft | 3 kts | 293° |
| 2026-05-07 22:29 | 35.33810 | 25.17543 | 92 ft | 2 kts | 315° |
| 2026-05-07 22:29 | 35.33814 | 25.17539 | 91 ft | 0 kts | 314° |